Time;durP1;ratioP1;P1;durP2;ratioP2;P2;SDS_P1;SDS_P2;PMS_P1;PMS_P2;Temp;Humidity;BMP_temperature;BMP_pressure;BME280_temperature;BME280_humidity;BME280_pressure;Samples;Min_cycle;Max_cycle;Signal;HPM_P1;HPM_P2
2022/12/10 00:02:07;;;;;;;413.63;39.80;;;;;;;;;;5033637;28;20471;-47
2022/12/10 00:04:34;;;;;;;576.40;52.25;;;;;;;;;;5033308;28;20472;-43
2022/12/10 00:07:01;;;;;;;443.70;45.40;;;;;;;;;;5033400;28;20058;-45
2022/12/10 00:09:28;;;;;;;399.00;44.03;;;;;;;;;;5033671;28;20049;-43
2022/12/10 00:11:55;;;;;;;476.42;51.58;;;;;;;;;;5033884;28;20025;-41
2022/12/10 00:14:22;;;;;;;368.33;44.83;;;;;;;;;;5033420;28;20037;-44
2022/12/10 00:19:59;;;;;;;278.40;33.17;;;;;;;;;;5032200;28;20033;-40
2022/12/10 00:22:26;;;;;;;263.95;28.13;;;;;;;;;;5033478;28;20037;-42
2022/12/10 00:24:53;;;;;;;231.23;26.48;;;;;;;;;;5033643;28;20029;-43
2022/12/10 00:27:20;;;;;;;210.05;25.15;;;;;;;;;;5032811;28;20037;-43
2022/12/10 00:29:47;;;;;;;167.82;23.33;;;;;;;;;;5033295;28;20116;-43
2022/12/10 00:32:14;;;;;;;156.20;22.00;;;;;;;;;;5032994;28;20068;-43
2022/12/10 00:34:41;;;;;;;192.65;21.52;;;;;;;;;;5033386;28;20124;-45
2022/12/10 00:37:08;;;;;;;246.15;28.05;;;;;;;;;;5033381;28;20017;-43
2022/12/10 00:39:35;;;;;;;292.33;32.83;;;;;;;;;;5032800;28;20028;-43
2022/12/10 00:42:02;;;;;;;213.35;30.20;;;;;;;;;;5032769;28;20029;-46
2022/12/10 00:44:29;;;;;;;228.48;31.70;;;;;;;;;;5033514;28;20028;-44
2022/12/10 00:46:56;;;;;;;210.70;31.90;;;;;;;;;;5033590;28;20036;-44
2022/12/10 00:49:24;;;;;;;229.50;33.90;;;;;;;;;;5031598;28;20025;-43
2022/12/10 00:51:51;;;;;;;347.65;43.85;;;;;;;;;;5026921;28;20411;-44
2022/12/10 00:54:18;;;;;;;303.35;39.60;;;;;;;;;;5022612;28;20040;-41
2022/12/10 00:56:45;;;;;;;329.70;36.28;;;;;;;;;;5016733;28;20585;-43
2022/12/10 00:59:12;;;;;;;262.83;35.92;;;;;;;;;;5033140;28;20138;-44
2022/12/10 01:01:40;;;;;;;367.38;40.80;;;;;;;;;;5033475;28;20105;-42
2022/12/10 01:04:09;;;;;;;328.13;41.13;;;;;;;;;;5031684;28;20479;-48
2022/12/10 01:06:38;;;;;;;306.02;39.35;;;;;;;;;;5013889;28;20026;-42
2022/12/10 01:09:06;;;;;;;263.83;38.47;;;;;;;;;;5032471;28;20391;-41
2022/12/10 01:11:36;;;;;;;255.90;37.65;;;;;;;;;;5032007;28;20033;-45
2022/12/10 01:14:04;;;;;;;287.60;40.78;;;;;;;;;;5030133;28;20144;-42
2022/12/10 01:16:31;;;;;;;267.67;40.47;;;;;;;;;;5032370;28;20044;-42
2022/12/10 01:18:59;;;;;;;195.68;36.58;;;;;;;;;;5032034;28;20025;-43
2022/12/10 01:21:26;;;;;;;115.47;27.67;;;;;;;;;;5032253;28;20075;-48
2022/12/10 01:23:54;;;;;;;92.05;21.77;;;;;;;;;;5032095;28;20029;-42
2022/12/10 01:26:22;;;;;;;84.30;17.17;;;;;;;;;;5031569;28;20048;-45
2022/12/10 01:28:50;;;;;;;48.00;11.50;;;;;;;;;;5027077;28;20018;-42
2022/12/10 01:31:18;;;;;;;35.92;8.55;;;;;;;;;;5031740;28;20030;-42
2022/12/10 01:33:46;;;;;;;38.95;7.95;;;;;;;;;;5031426;28;20037;-40
2022/12/10 01:36:14;;;;;;;47.13;10.05;;;;;;;;;;5029692;28;20121;-43
2022/12/10 01:38:41;;;;;;;37.42;10.60;;;;;;;;;;5031093;28;20060;-42
2022/12/10 01:41:09;;;;;;;74.63;13.80;;;;;;;;;;5031034;28;20036;-43
2022/12/10 01:43:54;;;;;;;51.55;13.52;;;;;;;;;;5031148;28;20488;-44
2022/12/10 01:46:21;;;;;;;51.03;14.55;;;;;;;;;;5031428;28;20460;-45
2022/12/10 01:48:48;;;;;;;56.78;14.68;;;;;;;;;;5029979;28;20503;-42
2022/12/10 01:51:16;;;;;;;62.15;14.90;;;;;;;;;;5032277;28;20029;-42
2022/12/10 01:53:43;;;;;;;52.70;13.18;;;;;;;;;;5030890;28;20037;-43
2022/12/10 01:56:11;;;;;;;50.13;10.82;;;;;;;;;;5032050;28;20099;-44
2022/12/10 01:58:39;;;;;;;44.65;8.32;;;;;;;;;;5032249;28;20026;-41
2022/12/10 02:01:06;;;;;;;48.38;8.48;;;;;;;;;;5032122;28;20108;-40
2022/12/10 02:03:38;;;;;;;46.13;8.02;;;;;;;;;;5031796;28;20072;-42
2022/12/10 02:06:16;;;;;;;32.20;7.10;;;;;;;;;;5032012;28;20025;-42
2022/12/10 02:09:02;;;;;;;56.45;7.63;;;;;;;;;;5031973;28;20094;-41
2022/12/10 02:11:42;;;;;;;49.13;7.65;;;;;;;;;;5031876;28;20032;-41
2022/12/10 02:14:16;;;;;;;55.30;7.72;;;;;;;;;;5031780;28;20033;-40
2022/12/10 02:16:48;;;;;;;73.32;9.32;;;;;;;;;;5032165;28;20025;-42
2022/12/10 02:19:21;;;;;;;48.97;7.57;;;;;;;;;;5031369;28;20029;-44
2022/12/10 02:21:49;;;;;;;48.47;8.02;;;;;;;;;;5031927;28;20052;-41
2022/12/10 02:24:19;;;;;;;45.92;6.60;;;;;;;;;;5030333;28;20099;-40
2022/12/10 02:26:52;;;;;;;46.97;6.68;;;;;;;;;;5031536;28;20053;-42
2022/12/10 02:29:24;;;;;;;56.10;6.95;;;;;;;;;;5031711;28;20056;-42
2022/12/10 02:31:51;;;;;;;;;;;;;;;;;;5032122;28;20037;-41
2022/12/10 02:34:19;;;;;;;65.57;8.88;;;;;;;;;;5031172;28;20043;-41
2022/12/10 02:36:48;;;;;;;82.47;9.95;;;;;;;;;;5031954;28;20021;-44
2022/12/10 02:39:17;;;;;;;42.78;7.10;;;;;;;;;;5031498;28;20121;-41
2022/12/10 02:41:49;;;;;;;42.75;6.72;;;;;;;;;;5031286;28;20037;-40
2022/12/10 02:44:18;;;;;;;63.42;7.43;;;;;;;;;;5031835;28;20117;-41
2022/12/10 02:46:46;;;;;;;48.70;7.47;;;;;;;;;;5031288;28;20567;-41
2022/12/10 02:49:14;;;;;;;44.00;6.18;;;;;;;;;;5031384;28;20040;-40
2022/12/10 02:51:42;;;;;;;47.08;5.75;;;;;;;;;;5031554;28;20087;-41
2022/12/10 02:54:28;;;;;;;49.05;6.85;;;;;;;;;;5029412;28;20487;-43
2022/12/10 02:56:59;;;;;;;39.05;6.00;;;;;;;;;;5031479;28;20041;-41
2022/12/10 02:59:30;;;;;;;51.28;7.22;;;;;;;;;;5031371;28;20045;-43
2022/12/10 03:01:57;;;;;;;47.03;6.18;;;;;;;;;;5031287;28;20108;-43
2022/12/10 03:04:29;;;;;;;37.58;6.22;;;;;;;;;;5031808;28;20029;-42
2022/12/10 03:06:56;;;;;;;;;;;;;;;;;;5032095;28;20030;-43
2022/12/10 03:09:25;;;;;;;40.00;5.80;;;;;;;;;;5031582;28;19917;-44
2022/12/10 03:12:07;;;;;;;34.58;4.60;;;;;;;;;;5031589;28;20491;-42
2022/12/10 03:14:34;;;;;;;35.83;4.63;;;;;;;;;;5031515;28;20037;-40
2022/12/10 03:17:02;;;;;;;34.45;4.72;;;;;;;;;;5031523;28;20037;-42
2022/12/10 03:19:33;;;;;;;42.38;4.18;;;;;;;;;;5030168;28;20030;-43
2022/12/10 03:22:00;;;;;;;32.50;3.92;;;;;;;;;;5031426;28;20429;-40
2022/12/10 03:24:28;;;;;;;31.92;3.53;;;;;;;;;;5031608;28;20022;-40
2022/12/10 03:26:56;;;;;;;34.05;3.78;;;;;;;;;;5031432;28;20037;-44
2022/12/10 03:29:28;;;;;;;27.33;3.50;;;;;;;;;;5031798;28;20033;-40
2022/12/10 03:31:56;;;;;;;28.27;3.10;;;;;;;;;;5035465;28;20855;-40
2022/12/10 03:34:23;;;;;;;33.45;3.88;;;;;;;;;;5035307;28;20037;-40
2022/12/10 03:36:50;;;;;;;26.80;3.17;;;;;;;;;;5035296;28;20025;-42
2022/12/10 03:39:18;;;;;;;24.85;2.67;;;;;;;;;;5035262;28;20025;-40
2022/12/10 03:41:45;;;;;;;22.55;2.85;;;;;;;;;;5035395;28;20041;-40
2022/12/10 03:44:12;;;;;;;29.45;3.63;;;;;;;;;;5035266;28;20449;-40
2022/12/10 03:46:39;;;;;;;24.02;2.55;;;;;;;;;;5035306;28;20480;-40
2022/12/10 03:49:06;;;;;;;22.85;2.80;;;;;;;;;;5035091;28;20049;-40
2022/12/10 03:51:33;;;;;;;19.38;2.42;;;;;;;;;;5034969;28;20048;-40
2022/12/10 03:54:00;;;;;;;25.30;2.58;;;;;;;;;;5035010;28;20080;-40
2022/12/10 03:56:26;;;;;;;27.33;3.20;;;;;;;;;;5035065;28;20384;-40
2022/12/10 03:58:53;;;;;;;30.73;2.65;;;;;;;;;;5034957;28;20390;-39
2022/12/10 04:01:20;;;;;;;18.65;2.03;;;;;;;;;;5034828;28;20649;-39
2022/12/10 04:03:47;;;;;;;23.83;2.47;;;;;;;;;;5035084;28;20084;-40
2022/12/10 04:06:16;;;;;;;21.63;2.78;;;;;;;;;;5034850;28;20494;-39
2022/12/10 04:08:43;;;;;;;22.55;2.30;;;;;;;;;;5034635;28;20049;-40
2022/12/10 04:11:11;;;;;;;22.35;2.50;;;;;;;;;;5034911;28;20025;-39
2022/12/10 04:16:28;;;;;;;43.75;4.15;;;;;;;;;;5034797;28;20083;-40
2022/12/10 04:18:56;;;;;;;35.67;3.47;;;;;;;;;;5034659;28;20080;-39
2022/12/10 04:26:58;;;;;;;53.30;4.03;;;;;;;;;;5034723;28;20052;-39
2022/12/10 04:29:27;;;;;;;38.58;3.80;;;;;;;;;;5034452;28;20025;-40
2022/12/10 04:31:54;;;;;;;20.65;2.42;;;;;;;;;;5034430;28;20044;-40
2022/12/10 04:34:21;;;;;;;34.65;2.97;;;;;;;;;;5034369;28;20029;-40
2022/12/10 04:36:49;;;;;;;23.10;2.40;;;;;;;;;;5034235;28;20026;-41
2022/12/10 04:39:16;;;;;;;28.52;2.13;;;;;;;;;;5034360;28;20025;-40
2022/12/10 04:41:43;;;;;;;22.50;2.28;;;;;;;;;;5032809;28;20033;-40
2022/12/10 04:44:10;;;;;;;19.77;1.92;;;;;;;;;;5034261;28;20116;-40
2022/12/10 04:46:37;;;;;;;16.13;2.05;;;;;;;;;;5034223;28;20095;-39
2022/12/10 04:49:05;;;;;;;52.60;3.78;;;;;;;;;;5034038;28;20017;-40
2022/12/10 04:51:32;;;;;;;36.40;3.20;;;;;;;;;;5034028;28;20487;-39
2022/12/10 04:53:59;;;;;;;26.45;2.60;;;;;;;;;;5034040;28;20042;-41
2022/12/10 04:56:26;;;;;;;20.13;2.40;;;;;;;;;;5033881;28;20029;-39
2022/12/10 04:58:55;;;;;;;24.08;2.20;;;;;;;;;;5033794;28;20398;-40
2022/12/10 05:01:22;;;;;;;25.75;2.90;;;;;;;;;;5033934;28;20113;-39
2022/12/10 05:03:49;;;;;;;20.80;1.88;;;;;;;;;;5033792;28;20578;-40
2022/12/10 05:06:16;;;;;;;20.80;1.98;;;;;;;;;;5033856;28;20435;-39
2022/12/10 05:08:43;;;;;;;27.30;2.30;;;;;;;;;;5033457;28;20492;-39
2022/12/10 05:11:12;;;;;;;19.08;1.75;;;;;;;;;;5033588;28;20030;-39
2022/12/10 05:13:40;;;;;;;18.90;1.65;;;;;;;;;;5033886;28;20037;-40
2022/12/10 05:16:08;;;;;;;23.80;2.00;;;;;;;;;;5033555;28;20029;-39
2022/12/10 05:18:36;;;;;;;17.42;1.83;;;;;;;;;;5033551;28;20025;-39
2022/12/10 05:21:04;;;;;;;18.23;2.60;;;;;;;;;;5032298;28;20365;-39
2022/12/10 05:23:31;;;;;;;25.75;2.72;;;;;;;;;;5033500;28;20029;-39
2022/12/10 05:26:01;;;;;;;21.35;2.55;;;;;;;;;;5033447;28;20033;-39
2022/12/10 05:28:28;;;;;;;28.63;1.98;;;;;;;;;;5033186;28;20096;-39
2022/12/10 05:30:55;;;;;;;18.80;2.20;;;;;;;;;;5033365;28;20096;-39
2022/12/10 05:33:23;;;;;;;21.45;2.15;;;;;;;;;;5033141;28;20033;-39
2022/12/10 05:35:56;;;;;;;12.57;1.75;;;;;;;;;;5033289;28;20499;-40
2022/12/10 05:38:23;;;;;;;24.38;3.15;;;;;;;;;;5033127;28;20476;-39
2022/12/10 05:40:51;;;;;;;24.38;2.20;;;;;;;;;;5032867;28;20068;-39
2022/12/10 05:43:18;;;;;;;22.35;2.65;;;;;;;;;;5032995;28;20084;-39
2022/12/10 05:45:45;;;;;;;23.38;2.38;;;;;;;;;;5033024;28;20141;-39
2022/12/10 05:48:13;;;;;;;18.50;2.58;;;;;;;;;;5032865;28;20029;-39
2022/12/10 05:50:41;;;;;;;24.13;2.55;;;;;;;;;;5033006;28;20025;-39
2022/12/10 05:53:09;;;;;;;26.40;2.50;;;;;;;;;;5032360;28;20057;-40
2022/12/10 05:55:36;;;;;;;20.08;2.42;;;;;;;;;;5032943;28;20029;-39
2022/12/10 05:58:03;;;;;;;29.77;2.67;;;;;;;;;;5032738;28;20060;-40
2022/12/10 06:00:30;;;;;;;22.42;2.40;;;;;;;;;;5032708;28;20038;-39
2022/12/10 06:02:57;;;;;;;23.02;2.47;;;;;;;;;;5026401;28;20108;-39
2022/12/10 06:05:24;;;;;;;32.65;2.65;;;;;;;;;;5032695;28;20589;-39
2022/12/10 06:07:51;;;;;;;29.10;2.60;;;;;;;;;;5030948;28;20756;-39
2022/12/10 06:10:18;;;;;;;27.05;2.25;;;;;;;;;;5032686;28;20034;-39
2022/12/10 06:12:45;;;;;;;20.67;2.08;;;;;;;;;;5032525;28;20108;-40
2022/12/10 06:15:12;;;;;;;23.40;2.25;;;;;;;;;;5032607;28;20029;-39
2022/12/10 06:17:39;;;;;;;33.28;2.53;;;;;;;;;;5032334;28;20108;-39
2022/12/10 06:20:06;;;;;;;25.85;2.75;;;;;;;;;;5032454;28;20057;-40
2022/12/10 06:22:34;;;;;;;28.17;2.72;;;;;;;;;;5032084;28;20103;-39
2022/12/10 06:25:01;;;;;;;23.77;2.65;;;;;;;;;;5032409;28;20041;-39
2022/12/10 06:27:31;;;;;;;31.35;3.03;;;;;;;;;;5032184;28;20089;-39
2022/12/10 06:29:58;;;;;;;24.60;2.50;;;;;;;;;;5030869;28;20025;-40
2022/12/10 06:32:25;;;;;;;28.23;2.97;;;;;;;;;;5032111;28;20025;-39
2022/12/10 06:34:52;;;;;;;31.45;3.03;;;;;;;;;;5032216;28;20637;-39
2022/12/10 06:37:19;;;;;;;23.67;2.75;;;;;;;;;;5032161;28;20029;-40
2022/12/10 06:39:46;;;;;;;30.60;2.33;;;;;;;;;;5032213;28;20034;-40
2022/12/10 06:42:14;;;;;;;16.75;2.17;;;;;;;;;;5032121;28;20030;-39
2022/12/10 06:44:40;;;;;;;19.67;2.10;;;;;;;;;;5031975;28;20052;-39
2022/12/10 06:47:07;;;;;;;19.30;2.40;;;;;;;;;;5031881;28;20033;-40
2022/12/10 06:49:34;;;;;;;24.08;2.58;;;;;;;;;;5032106;28;20101;-39
2022/12/10 06:52:01;;;;;;;16.58;1.80;;;;;;;;;;5031968;28;20391;-39
2022/12/10 06:54:28;;;;;;;15.13;1.98;;;;;;;;;;5031714;28;20041;-40
2022/12/10 06:56:55;;;;;;;26.58;2.85;;;;;;;;;;5031763;28;20025;-40
2022/12/10 06:59:22;;;;;;;37.50;3.33;;;;;;;;;;5031912;28;20079;-40
2022/12/10 07:01:49;;;;;;;30.02;3.00;;;;;;;;;;5031929;28;20036;-39
2022/12/10 07:04:16;;;;;;;21.27;2.90;;;;;;;;;;5032455;28;20488;-39
2022/12/10 07:06:44;;;;;;;30.77;3.55;;;;;;;;;;5035968;28;20029;-41
2022/12/10 07:09:11;;;;;;;32.30;3.63;;;;;;;;;;5035758;28;20119;-39
2022/12/10 07:11:38;;;;;;;26.23;3.45;;;;;;;;;;5035711;28;20033;-39
2022/12/10 07:14:05;;;;;;;29.60;3.15;;;;;;;;;;5035831;28;20034;-39
2022/12/10 07:16:33;;;;;;;23.02;2.45;;;;;;;;;;5035571;28;20036;-39
2022/12/10 07:19:01;;;;;;;20.42;2.40;;;;;;;;;;5035804;28;20021;-39
2022/12/10 07:21:30;;;;;;;30.10;2.55;;;;;;;;;;5035669;28;20029;-39
2022/12/10 07:23:58;;;;;;;17.80;1.90;;;;;;;;;;5035727;28;20037;-39
2022/12/10 07:26:26;;;;;;;17.50;2.13;;;;;;;;;;5035579;28;20026;-39
2022/12/10 07:28:53;;;;;;;15.05;2.38;;;;;;;;;;5035546;28;20029;-40
2022/12/10 07:31:20;;;;;;;19.25;2.33;;;;;;;;;;5035535;28;20399;-40
2022/12/10 07:33:47;;;;;;;10.73;1.77;;;;;;;;;;5035407;28;20494;-39
2022/12/10 07:36:14;;;;;;;18.15;1.88;;;;;;;;;;5035460;28;20035;-39
2022/12/10 07:38:41;;;;;;;9.90;1.95;;;;;;;;;;5035407;28;20030;-40
2022/12/10 07:41:12;;;;;;;16.00;2.03;;;;;;;;;;5035400;28;20028;-41
2022/12/10 07:43:41;;;;;;;14.70;1.77;;;;;;;;;;5035402;28;20029;-42
2022/12/10 07:46:17;;;;;;;17.67;2.10;;;;;;;;;;5035315;28;20256;-39
2022/12/10 07:48:45;;;;;;;25.15;2.50;;;;;;;;;;5035020;28;20391;-39
2022/12/10 07:51:12;;;;;;;18.63;1.95;;;;;;;;;;5035102;28;20033;-40
2022/12/10 07:53:39;;;;;;;18.52;2.10;;;;;;;;;;5035073;28;20026;-39
2022/12/10 07:56:06;;;;;;;28.80;2.58;;;;;;;;;;5035149;28;20493;-39
2022/12/10 07:58:34;;;;;;;21.75;2.70;;;;;;;;;;5034787;28;20105;-39
2022/12/10 08:01:07;;;;;;;20.27;3.17;;;;;;;;;;5034929;28;20034;-40
2022/12/10 08:03:34;;;;;;;25.25;2.60;;;;;;;;;;5034974;28;20452;-39
2022/12/10 08:06:09;;;;;;;27.90;2.97;;;;;;;;;;5034761;28;20052;-39
2022/12/10 08:08:36;;;;;;;38.05;3.30;;;;;;;;;;5034603;28;20053;-39
2022/12/10 08:11:04;;;;;;;39.97;3.45;;;;;;;;;;5034776;28;20017;-41
2022/12/10 08:13:31;;;;;;;35.78;3.15;;;;;;;;;;5034804;28;20026;-40
2022/12/10 08:16:02;;;;;;;29.40;3.30;;;;;;;;;;5034294;28;20467;-39
2022/12/10 08:18:29;;;;;;;25.90;3.03;;;;;;;;;;5034655;28;20037;-39
2022/12/10 08:20:56;;;;;;;20.73;2.55;;;;;;;;;;5034671;28;20100;-39
2022/12/10 08:23:23;;;;;;;26.58;2.65;;;;;;;;;;5034460;28;20041;-39
2022/12/10 08:25:50;;;;;;;16.50;2.15;;;;;;;;;;5034634;28;20013;-41
2022/12/10 08:28:17;;;;;;;22.42;2.22;;;;;;;;;;5034452;28;20024;-39
2022/12/10 08:30:48;;;;;;;22.33;2.45;;;;;;;;;;5034540;28;20078;-40
2022/12/10 08:33:15;;;;;;;24.38;2.72;;;;;;;;;;5034141;28;20042;-39
2022/12/10 08:35:42;;;;;;;23.27;2.70;;;;;;;;;;5034422;28;20037;-41
2022/12/10 08:38:09;;;;;;;24.13;2.88;;;;;;;;;;5034236;28;20025;-42
2022/12/10 08:40:40;;;;;;;46.70;3.65;;;;;;;;;;5034262;28;20036;-40
2022/12/10 08:43:07;;;;;;;37.05;3.55;;;;;;;;;;5034362;28;20032;-39
2022/12/10 08:45:34;;;;;;;25.58;2.55;;;;;;;;;;5034232;28;20045;-39
2022/12/10 08:51:41;;;;;;;18.88;2.50;;;;;;;;;;5035343;28;20112;-39
2022/12/10 08:54:08;;;;;;;22.48;2.75;;;;;;;;;;5035567;28;20115;-40
2022/12/10 08:56:35;;;;;;;47.90;4.20;;;;;;;;;;5033561;28;20037;-39
2022/12/10 08:59:02;;;;;;;36.10;3.83;;;;;;;;;;5033932;28;20037;-40
2022/12/10 09:01:29;;;;;;;39.35;3.85;;;;;;;;;;5033953;28;20115;-39
2022/12/10 09:03:56;;;;;;;42.25;4.53;;;;;;;;;;5033655;28;20033;-39
2022/12/10 09:06:27;;;;;;;56.78;5.32;;;;;;;;;;5033512;28;20104;-39
2022/12/10 09:08:54;;;;;;;46.58;4.90;;;;;;;;;;5033401;28;20049;-40
2022/12/10 09:11:26;;;;;;;42.90;4.60;;;;;;;;;;5033737;28;20022;-39
2022/12/10 09:13:54;;;;;;;32.00;4.00;;;;;;;;;;5033592;28;20029;-39
2022/12/10 09:16:21;;;;;;;32.13;3.53;;;;;;;;;;5032334;28;20029;-39
2022/12/10 09:18:48;;;;;;;30.77;3.78;;;;;;;;;;5033615;28;20083;-41
2022/12/10 09:21:16;;;;;;;32.35;3.58;;;;;;;;;;5033750;28;20419;-39
2022/12/10 09:23:44;;;;;;;26.52;3.45;;;;;;;;;;5033437;28;20029;-40
2022/12/10 09:26:12;;;;;;;26.92;3.03;;;;;;;;;;5033404;28;20045;-39
2022/12/10 09:28:39;;;;;;;39.60;3.53;;;;;;;;;;5032505;28;20025;-41
2022/12/10 09:31:07;;;;;;;26.27;2.80;;;;;;;;;;5033409;28;20030;-39
2022/12/10 09:33:34;;;;;;;25.02;3.08;;;;;;;;;;5033151;28;20383;-40
2022/12/10 09:36:03;;;;;;;19.52;2.72;;;;;;;;;;5033211;28;20061;-40
2022/12/10 09:38:30;;;;;;;29.05;3.17;;;;;;;;;;5033167;28;20118;-39
2022/12/10 09:41:00;;;;;;;29.05;3.47;;;;;;;;;;5033230;28;20028;-39
2022/12/10 09:43:34;;;;;;;29.17;3.17;;;;;;;;;;5033231;28;20033;-39
2022/12/10 09:46:01;;;;;;;26.90;3.10;;;;;;;;;;5033009;28;20026;-39
2022/12/10 09:48:33;;;;;;;53.88;4.78;;;;;;;;;;5032845;28;20391;-39
2022/12/10 09:51:05;;;;;;;35.72;4.30;;;;;;;;;;5033008;28;20040;-39
2022/12/10 09:53:32;;;;;;;29.38;3.00;;;;;;;;;;5032882;28;20032;-39
2022/12/10 09:55:59;;;;;;;25.33;3.15;;;;;;;;;;5032793;28;20025;-39
2022/12/10 09:58:27;;;;;;;21.88;3.30;;;;;;;;;;5032703;28;20499;-39
2022/12/10 10:00:59;;;;;;;30.13;3.70;;;;;;;;;;5032834;28;20086;-39
2022/12/10 10:03:26;;;;;;;29.83;3.70;;;;;;;;;;5032716;28;20021;-39
2022/12/10 10:05:55;;;;;;;30.52;3.50;;;;;;;;;;5032644;28;20056;-39
2022/12/10 10:08:24;;;;;;;34.47;4.20;;;;;;;;;;5032248;28;20049;-39
2022/12/10 10:10:51;;;;;;;33.72;3.67;;;;;;;;;;5032567;28;20100;-39
2022/12/10 10:13:39;;;;;;;31.73;3.25;;;;;;;;;;5032057;28;20120;-39
2022/12/10 10:16:12;;;;;;;28.23;3.75;;;;;;;;;;5032391;28;20022;-39
2022/12/10 10:18:42;;;;;;;19.92;3.20;;;;;;;;;;5032437;28;20144;-39
2022/12/10 10:21:29;;;;;;;25.60;3.00;;;;;;;;;;5032433;28;20032;-39
2022/12/10 10:23:57;;;;;;;27.73;3.25;;;;;;;;;;5032408;28;20483;-39
2022/12/10 10:26:25;;;;;;;34.47;3.38;;;;;;;;;;5032276;28;20025;-39
2022/12/10 10:28:56;;;;;;;25.48;3.42;;;;;;;;;;5032368;28;20503;-39
2022/12/10 10:31:25;;;;;;;24.80;3.40;;;;;;;;;;5032344;28;20075;-39
2022/12/10 10:33:57;;;;;;;26.10;3.03;;;;;;;;;;5032037;28;20438;-39
2022/12/10 10:36:24;;;;;;;;;;;;;;;;;;5030352;28;20559;-40
2022/12/10 10:38:51;;;;;;;15.95;2.60;;;;;;;;;;5031045;28;19940;-39
2022/12/10 10:41:18;;;;;;;26.35;3.03;;;;;;;;;;5031724;28;20028;-40
2022/12/10 10:43:45;;;;;;;19.45;3.00;;;;;;;;;;5031362;28;20068;-40
2022/12/10 10:46:24;;;;;;;24.85;3.28;;;;;;;;;;5030996;28;20025;-39
2022/12/10 10:48:51;;;;;;;33.50;4.15;;;;;;;;;;5031538;28;20053;-42
2022/12/10 10:51:25;;;;;;;66.28;5.95;;;;;;;;;;5031520;28;20049;-40
2022/12/10 10:53:54;;;;;;;44.58;7.32;;;;;;;;;;5031173;28;20025;-40
2022/12/10 10:56:25;;;;;;;61.40;6.63;;;;;;;;;;5031465;28;20773;-40
2022/12/10 10:59:08;;;;;;;44.27;5.03;;;;;;;;;;5031274;28;20044;-40
2022/12/10 11:01:46;;;;;;;38.38;4.35;;;;;;;;;;5031471;28;20267;-40
2022/12/10 11:04:14;;;;;;;29.00;3.47;;;;;;;;;;5031212;28;20048;-40
2022/12/10 11:06:41;;;;;;;30.60;4.38;;;;;;;;;;5030981;28;20030;-40
2022/12/10 11:09:08;;;;;;;28.63;3.75;;;;;;;;;;5031349;28;20056;-39
2022/12/10 11:11:37;;;;;;;24.10;3.20;;;;;;;;;;5031115;28;20026;-40
2022/12/10 11:14:23;;;;;;;19.48;3.25;;;;;;;;;;5031049;28;20488;-40
2022/12/10 11:16:50;;;;;;;20.30;2.88;;;;;;;;;;5031578;28;20043;-41
2022/12/10 11:19:26;;;;;;;14.65;2.38;;;;;;;;;;5031086;28;20125;-41
2022/12/10 11:21:53;;;;;;;15.55;2.92;;;;;;;;;;5031034;28;20387;-40
2022/12/10 11:24:20;;;;;;;13.00;2.10;;;;;;;;;;5030901;28;20049;-40
2022/12/10 11:26:47;;;;;;;14.88;1.90;;;;;;;;;;5031071;28;20029;-41
2022/12/10 11:29:21;;;;;;;9.75;2.13;;;;;;;;;;5031018;28;20025;-40
2022/12/10 11:31:47;;;;;;;13.43;2.13;;;;;;;;;;5031031;28;20040;-40
2022/12/10 11:34:32;;;;;;;16.65;2.55;;;;;;;;;;5030978;28;20033;-40
2022/12/10 11:37:03;;;;;;;31.38;3.47;;;;;;;;;;5030500;28;20029;-39
2022/12/10 11:39:30;;;;;;;36.95;3.00;;;;;;;;;;5030768;28;20025;-40
2022/12/10 11:42:05;;;;;;;15.40;2.28;;;;;;;;;;5030625;28;20088;-42
2022/12/10 11:44:42;;;;;;;25.92;3.58;;;;;;;;;;5030644;28;20789;-40
2022/12/10 11:47:21;;;;;;;24.20;4.45;;;;;;;;;;5030781;28;20029;-40
2022/12/10 11:49:48;;;;;;;30.65;4.43;;;;;;;;;;5031081;28;20025;-41
2022/12/10 11:52:24;;;;;;;30.75;4.90;;;;;;;;;;5033866;28;20145;-42
2022/12/10 11:54:59;;;;;;;30.13;5.07;;;;;;;;;;5034804;28;20037;-41
2022/12/10 11:57:55;;;;;;;37.33;4.72;;;;;;;;;;5034632;28;20245;-44
2022/12/10 12:00:27;;;;;;;27.92;4.20;;;;;;;;;;4981325;28;20045;-40
2022/12/10 12:03:13;;;;;;;27.67;4.22;;;;;;;;;;5034599;28;20037;-40
2022/12/10 12:05:58;;;;;;;30.70;3.00;;;;;;;;;;5034140;28;20037;-40
2022/12/10 12:08:25;;;;;;;22.45;3.55;;;;;;;;;;5033961;28;20069;-40
2022/12/10 12:11:10;;;;;;;32.30;3.90;;;;;;;;;;5034452;28;20395;-40
2022/12/10 12:13:37;;;;;;;19.33;3.30;;;;;;;;;;5032473;28;20450;-40
2022/12/10 12:16:08;;;;;;;24.08;3.45;;;;;;;;;;5033944;28;20041;-44
2022/12/10 12:18:43;;;;;;;19.98;3.17;;;;;;;;;;5032161;28;20033;-42
2022/12/10 12:21:11;;;;;;;26.70;3.75;;;;;;;;;;5033598;28;20079;-41
2022/12/10 12:23:48;;;;;;;28.90;3.70;;;;;;;;;;5033119;28;20036;-47
2022/12/10 12:26:25;;;;;;;25.58;3.38;;;;;;;;;;5033864;28;20035;-42
2022/12/10 12:29:01;;;;;;;19.23;2.88;;;;;;;;;;5033575;28;20026;-42
2022/12/10 12:31:32;;;;;;;28.02;3.58;;;;;;;;;;5033997;28;20029;-42
2022/12/10 12:34:18;;;;;;;24.90;3.30;;;;;;;;;;5033362;28;20056;-42
2022/12/10 12:36:45;;;;;;;28.35;3.55;;;;;;;;;;5033393;28;20037;-44
2022/12/10 12:39:28;;;;;;;23.10;3.10;;;;;;;;;;5033917;28;20037;-49
2022/12/10 12:42:02;;;;;;;20.25;3.53;;;;;;;;;;5032787;28;20391;-43
2022/12/10 12:44:32;;;;;;;27.20;3.58;;;;;;;;;;5033539;28;20053;-42
2022/12/10 12:47:03;;;;;;;22.98;3.60;;;;;;;;;;5033582;28;20507;-41
2022/12/10 12:49:38;;;;;;;26.85;4.40;;;;;;;;;;5033552;28;20521;-42
2022/12/10 12:52:25;;;;;;;29.35;4.25;;;;;;;;;;5033385;28;20033;-43
2022/12/10 12:54:52;;;;;;;34.28;4.45;;;;;;;;;;5033305;28;20045;-41
2022/12/10 12:57:34;;;;;;;37.25;4.70;;;;;;;;;;5033089;28;20036;-43
2022/12/10 13:00:21;;;;;;;31.60;4.65;;;;;;;;;;5033599;28;20029;-47
2022/12/10 13:03:06;;;;;;;29.70;4.20;;;;;;;;;;5031965;28;20029;-41
2022/12/10 13:05:36;;;;;;;30.02;4.43;;;;;;;;;;5033045;28;20042;-41
2022/12/10 13:08:25;;;;;;;29.75;4.93;;;;;;;;;;5032607;28;20090;-41
2022/12/10 13:11:00;;;;;;;35.60;4.93;;;;;;;;;;5025625;28;20038;-45
2022/12/10 13:13:35;;;;;;;29.70;4.40;;;;;;;;;;5032903;28;20029;-41
2022/12/10 13:16:20;;;;;;;26.42;4.18;;;;;;;;;;5032867;28;20032;-41
2022/12/10 13:18:47;;;;;;;23.70;4.70;;;;;;;;;;5032834;28;20037;-42
2022/12/10 13:21:23;;;;;;;32.08;4.20;;;;;;;;;;5031316;28;20518;-42
2022/12/10 13:23:54;;;;;;;26.75;4.53;;;;;;;;;;5033071;28;20106;-43
2022/12/10 13:26:26;;;;;;;28.67;4.28;;;;;;;;;;5032694;28;20041;-41
2022/12/10 13:28:53;;;;;;;24.23;4.15;;;;;;;;;;5032653;28;20479;-41
2022/12/10 13:31:22;;;;;;;32.15;4.82;;;;;;;;;;5032927;28;20087;-41
2022/12/10 13:33:52;;;;;;;32.70;4.95;;;;;;;;;;5032758;28;20045;-41
2022/12/10 13:36:57;;;;;;;25.23;4.45;;;;;;;;;;5030415;28;20514;-41
2022/12/10 13:39:43;;;;;;;34.22;5.63;;;;;;;;;;5032663;28;20139;-44
2022/12/10 13:45:25;;;;;;;34.28;5.45;;;;;;;;;;5032421;28;20061;-43
2022/12/10 13:47:53;;;;;;;21.48;4.38;;;;;;;;;;5032033;28;20382;-43
2022/12/10 13:50:32;;;;;;;30.77;5.20;;;;;;;;;;5032035;28;20413;-41
2022/12/10 13:53:17;;;;;;;32.85;5.80;;;;;;;;;;5032224;28;20017;-41
2022/12/10 13:55:47;;;;;;;20.35;4.15;;;;;;;;;;5032433;28;20049;-41
2022/12/10 13:58:28;;;;;;;34.85;4.97;;;;;;;;;;5030459;28;20033;-44
2022/12/10 14:01:05;;;;;;;32.10;5.32;;;;;;;;;;5032484;28;20101;-43
2022/12/10 14:03:44;;;;;;;25.42;4.40;;;;;;;;;;5032056;28;20065;-42
2022/12/10 14:06:16;;;;;;;28.50;5.20;;;;;;;;;;5031532;28;20103;-41
2022/12/10 14:08:53;;;;;;;22.67;4.50;;;;;;;;;;5031877;28;20176;-41
2022/12/10 14:11:26;;;;;;;29.90;4.68;;;;;;;;;;5031483;28;20030;-43
2022/12/10 14:13:57;;;;;;;27.30;4.78;;;;;;;;;;5030964;28;20071;-45
2022/12/10 14:16:24;;;;;;;26.47;4.33;;;;;;;;;;5031811;28;20033;-41
2022/12/10 14:18:58;;;;;;;27.73;4.47;;;;;;;;;;5029714;28;20411;-46
2022/12/10 14:21:25;;;;;;;26.70;4.43;;;;;;;;;;5031953;28;20427;-44
2022/12/10 14:23:53;;;;;;;30.23;4.18;;;;;;;;;;5031181;28;20036;-42
2022/12/10 14:26:22;;;;;;;30.08;4.50;;;;;;;;;;5031382;28;20376;-41
2022/12/10 14:29:09;;;;;;;23.08;4.60;;;;;;;;;;5031796;28;20120;-41
2022/12/10 14:31:45;;;;;;;34.75;5.32;;;;;;;;;;5030103;28;20525;-41
2022/12/10 14:34:15;;;;;;;27.67;4.53;;;;;;;;;;5031337;28;20120;-41
2022/12/10 14:36:49;;;;;;;31.67;5.00;;;;;;;;;;5030543;28;20037;-45
2022/12/10 14:39:21;;;;;;;33.03;4.57;;;;;;;;;;5031867;28;20033;-41
2022/12/10 14:41:52;;;;;;;24.98;4.72;;;;;;;;;;5031997;28;20025;-42
2022/12/10 14:44:20;;;;;;;25.23;4.50;;;;;;;;;;5031403;28;20506;-41
2022/12/10 14:46:50;;;;;;;26.98;4.88;;;;;;;;;;5031041;28;20106;-41
2022/12/10 14:49:20;;;;;;;31.52;5.63;;;;;;;;;;5031082;28;20439;-42
2022/12/10 14:51:49;;;;;;;29.10;4.55;;;;;;;;;;5030981;28;20045;-43
2022/12/10 14:54:34;;;;;;;24.88;4.80;;;;;;;;;;5030739;28;20049;-45
2022/12/10 14:57:05;;;;;;;31.80;4.93;;;;;;;;;;5030940;28;20033;-41
2022/12/10 14:59:48;;;;;;;31.45;5.65;;;;;;;;;;5031311;28;20021;-41
2022/12/10 15:02:23;;;;;;;27.58;5.22;;;;;;;;;;5031168;28;20104;-41
2022/12/10 15:04:51;;;;;;;29.85;5.22;;;;;;;;;;5031049;28;20025;-41